createdAt,value
2022-08-19T00:00:08.057Z,27.22
2022-08-19T00:03:00.119Z,27.20
2022-08-19T00:05:32.310Z,27.16
2022-08-19T00:08:05.665Z,27.14
2022-08-19T00:10:38.614Z,27.12
2022-08-19T00:13:13.125Z,27.10
2022-08-19T00:15:46.093Z,27.07
2022-08-19T00:18:21.425Z,27.04
2022-08-19T00:20:52.161Z,27.02
2022-08-19T00:23:25.824Z,26.99
2022-08-19T00:26:02.007Z,26.96
2022-08-19T00:28:36.123Z,26.95
2022-08-19T00:31:12.460Z,26.93
2022-08-19T00:33:47.950Z,26.89
2022-08-19T00:36:19.899Z,26.76
2022-08-19T00:38:56.425Z,26.68
2022-08-19T00:41:27.644Z,26.52
2022-08-19T00:44:08.128Z,26.40
2022-08-19T00:46:41.757Z,26.35
2022-08-19T00:49:16.706Z,26.34
2022-08-19T00:51:48.145Z,26.34
2022-08-19T00:54:20.365Z,26.34
2022-08-19T00:57:04.116Z,26.34
2022-08-19T01:00:01.048Z,26.34
2022-08-19T01:02:35.736Z,26.35
2022-08-19T01:05:11.488Z,26.35
2022-08-19T01:07:42.866Z,26.34
2022-08-19T01:10:17.194Z,26.33
2022-08-19T01:12:48.215Z,26.32
2022-08-19T01:15:22.408Z,26.32
2022-08-19T01:17:57.071Z,26.32
2022-08-19T01:20:36.389Z,26.32
2022-08-19T01:23:08.359Z,26.31
2022-08-19T01:25:50.067Z,26.28
2022-08-19T01:28:39.749Z,26.26
2022-08-19T01:31:27.265Z,26.25
2022-08-19T01:34:02.117Z,26.24
2022-08-19T01:36:34.058Z,26.24
2022-08-19T01:39:10.529Z,26.22
2022-08-19T01:41:41.368Z,26.21
2022-08-19T01:44:18.728Z,26.20
2022-08-19T01:46:56.709Z,26.19
2022-08-19T01:49:27.792Z,26.17
2022-08-19T01:51:59.667Z,26.15
2022-08-19T01:54:40.400Z,26.13
2022-08-19T01:57:12.310Z,26.12
2022-08-19T01:59:45.307Z,26.07
2022-08-19T02:02:19.253Z,26.05
2022-08-19T02:04:52.494Z,26.03
2022-08-19T02:07:29.556Z,25.99
2022-08-19T02:10:00.514Z,25.99
2022-08-19T02:12:36.859Z,25.99
2022-08-19T02:15:09.027Z,26.00
2022-08-19T02:17:46.052Z,26.00
2022-08-19T02:20:17.213Z,25.99
2022-08-19T02:22:50.880Z,25.97
2022-08-19T02:25:25.628Z,25.95
2022-08-19T02:27:56.352Z,25.94
2022-08-19T02:30:31.333Z,25.93
2022-08-19T02:33:09.629Z,25.93
2022-08-19T02:35:40.629Z,25.93
2022-08-19T02:38:36.210Z,25.91
2022-08-19T02:41:11.112Z,25.90
2022-08-19T02:44:26.497Z,25.88
2022-08-19T02:46:44.521Z,25.86
2022-08-19T02:49:17.582Z,25.85
2022-08-19T02:51:48.926Z,25.84
2022-08-19T02:54:24.210Z,25.82
2022-08-19T02:56:56.190Z,25.82
2022-08-19T02:59:27.101Z,25.82
2022-08-19T03:02:01.073Z,25.79
2022-08-19T03:04:31.899Z,25.74
2022-08-19T03:07:10.924Z,25.72
2022-08-19T03:09:43.593Z,25.70
2022-08-19T03:12:14.509Z,25.69
2022-08-19T03:14:47.728Z,25.69
2022-08-19T03:17:24.392Z,25.68
2022-08-19T03:20:00.911Z,25.68
2022-08-19T03:22:34.180Z,25.66
2022-08-19T03:25:07.171Z,25.65
2022-08-19T03:27:40.845Z,25.59
2022-08-19T03:30:15.128Z,25.54
2022-08-19T03:32:57.144Z,25.47
2022-08-19T03:35:28.409Z,25.42
2022-08-19T03:37:59.300Z,25.41
2022-08-19T03:40:31.953Z,25.40
2022-08-19T03:43:03.332Z,25.39
2022-08-19T03:45:42.084Z,25.35
2022-08-19T03:48:13.117Z,25.32
2022-08-19T03:50:51.171Z,25.26
2022-08-19T03:53:22.902Z,25.19
2022-08-19T03:55:54.187Z,25.11
2022-08-19T03:58:28.925Z,25.02
2022-08-19T04:01:02.070Z,24.91
2022-08-19T04:03:37.140Z,24.89
2022-08-19T04:06:18.157Z,24.88
2022-08-19T04:08:51.555Z,24.87
2022-08-19T04:11:43.242Z,24.89
2022-08-19T04:14:20.610Z,24.91
2022-08-19T04:16:51.603Z,24.92
2022-08-19T04:19:22.915Z,24.93
2022-08-19T04:21:54.858Z,24.95
2022-08-19T04:24:38.283Z,24.94
2022-08-19T04:27:10.594Z,24.93
2022-08-19T04:29:42.481Z,24.93
2022-08-19T04:32:16.963Z,24.92
2022-08-19T04:35:01.559Z,24.94
2022-08-19T04:37:42.560Z,24.98
2022-08-19T04:40:31.294Z,24.99
2022-08-19T04:43:03.363Z,25.01
2022-08-19T04:45:43.790Z,25.03
2022-08-19T04:48:19.793Z,25.07
2022-08-19T04:51:08.666Z,25.11
2022-08-19T04:53:41.653Z,25.16
2022-08-19T04:56:22.700Z,25.20
2022-08-19T04:58:53.599Z,25.22
2022-08-19T05:01:37.286Z,25.23
2022-08-19T05:04:08.745Z,25.25
2022-08-19T05:06:43.450Z,25.25
2022-08-19T05:09:16.850Z,25.27
2022-08-19T05:11:52.526Z,25.27
2022-08-19T05:14:31.584Z,25.24
2022-08-19T05:17:26.215Z,25.21
2022-08-19T05:20:16.587Z,25.24
2022-08-19T05:22:49.296Z,25.30
2022-08-19T05:25:32.882Z,25.36
2022-08-19T05:28:08.635Z,25.41
2022-08-19T05:30:47.751Z,25.46
2022-08-19T05:33:23.947Z,25.49
2022-08-19T05:35:57.756Z,25.55
2022-08-19T05:38:38.432Z,25.64
2022-08-19T05:41:11.827Z,25.70
2022-08-19T05:43:48.474Z,25.77
2022-08-19T05:46:27.872Z,25.87
2022-08-19T05:49:15.021Z,25.94
2022-08-19T05:51:49.223Z,26.01
2022-08-19T05:54:24.275Z,26.11
2022-08-19T05:57:04.671Z,26.20
2022-08-19T05:59:35.568Z,26.27
2022-08-19T06:02:14.646Z,26.35
2022-08-19T06:04:57.739Z,26.44
2022-08-19T06:07:31.664Z,26.58
2022-08-19T06:10:05.950Z,26.70
2022-08-19T06:12:40.675Z,26.84
2022-08-19T06:15:15.972Z,26.97
2022-08-19T06:17:49.855Z,27.08
2022-08-19T06:20:52.293Z,27.17
2022-08-19T06:23:20.519Z,27.27
2022-08-19T06:25:55.296Z,27.41
2022-08-19T06:28:28.973Z,27.53
2022-08-19T06:30:59.849Z,27.70
2022-08-19T06:33:33.660Z,27.88
2022-08-19T06:36:07.501Z,28.09
2022-08-19T06:38:38.441Z,28.29
2022-08-19T06:41:16.684Z,28.49
2022-08-19T06:43:50.526Z,28.63
2022-08-19T06:46:29.970Z,28.81
2022-08-19T06:49:15.193Z,29.04
2022-08-19T06:51:54.722Z,29.24
2022-08-19T06:54:30.794Z,29.44
2022-08-19T06:57:03.504Z,29.64
2022-08-19T06:59:35.449Z,29.84
2022-08-19T07:04:55.261Z,30.20
2022-08-19T07:07:33.852Z,30.34
2022-08-19T07:10:07.704Z,30.41
2022-08-19T07:12:39.265Z,30.46
2022-08-19T07:15:22.477Z,30.53
2022-08-19T07:17:57.752Z,30.74
2022-08-19T07:20:29.714Z,30.86
2022-08-19T07:23:07.164Z,30.98
2022-08-19T07:25:52.499Z,31.08
2022-08-19T07:28:25.175Z,31.20
2022-08-19T07:31:02.960Z,31.35
2022-08-19T07:33:37.674Z,31.43
2022-08-19T07:36:14.464Z,31.56
2022-08-19T07:38:48.035Z,31.73
2022-08-19T07:41:29.860Z,31.84
2022-08-19T07:44:07.292Z,31.97
2022-08-19T07:46:48.270Z,32.04
2022-08-19T07:49:27.032Z,32.01
2022-08-19T07:52:01.259Z,31.99
2022-08-19T07:54:36.717Z,31.99
2022-08-19T07:57:13.813Z,32.02
2022-08-19T07:59:49.933Z,31.99
2022-08-19T08:02:29.741Z,31.90
2022-08-19T08:05:18.645Z,31.86
2022-08-19T08:08:09.039Z,31.80
2022-08-19T08:10:43.754Z,31.77
2022-08-19T08:13:31.225Z,31.78
2022-08-19T08:16:05.475Z,31.74
2022-08-19T08:19:02.879Z,31.69
2022-08-19T08:21:45.214Z,31.67
2022-08-19T08:24:19.680Z,31.72
2022-08-19T08:26:52.135Z,31.74
2022-08-19T08:29:35.091Z,31.76
2022-08-19T08:32:14.231Z,31.78
2022-08-19T08:34:52.419Z,31.87
2022-08-19T08:37:25.129Z,32.05
2022-08-19T08:39:58.944Z,32.19
2022-08-19T08:42:30.472Z,32.34
2022-08-19T08:45:07.004Z,32.50
2022-08-19T08:47:41.966Z,32.55
2022-08-19T08:50:15.786Z,32.75
2022-08-19T08:52:48.264Z,33.02
2022-08-19T08:55:24.535Z,33.31
2022-08-19T08:58:03.399Z,33.65
2022-08-19T09:00:44.004Z,33.98
2022-08-19T09:03:19.219Z,34.38
2022-08-19T09:05:52.488Z,34.83
2022-08-19T09:08:28.497Z,35.25
2022-08-19T09:10:59.574Z,35.64
2022-08-19T09:13:37.487Z,35.91
2022-08-19T09:16:09.936Z,36.01
2022-08-19T09:18:48.235Z,36.26
2022-08-19T09:21:25.738Z,36.56
2022-08-19T09:24:04.175Z,36.87
2022-08-19T09:26:48.267Z,37.23
2022-08-19T09:29:26.981Z,37.65
2022-08-19T09:31:59.041Z,37.85
2022-08-19T09:34:37.848Z,38.13
2022-08-19T09:37:15.137Z,38.44
2022-08-19T09:39:46.149Z,38.80
2022-08-19T09:42:30.357Z,39.04
2022-08-19T09:45:10.484Z,39.18
2022-08-19T09:47:41.357Z,39.38
2022-08-19T09:50:16.426Z,39.58
2022-08-19T09:52:55.076Z,39.81
2022-08-19T09:55:32.062Z,39.93
2022-08-19T09:58:04.364Z,40.05
2022-08-19T10:00:35.124Z,40.35
2022-08-19T10:03:05.900Z,40.63
2022-08-19T10:05:54.659Z,40.79
2022-08-19T10:08:27.694Z,40.86
2022-08-19T10:10:58.862Z,40.91
2022-08-19T10:13:31.077Z,40.64
2022-08-19T10:16:06.298Z,40.56
2022-08-19T10:18:38.357Z,40.85
2022-08-19T10:21:16.129Z,41.15
2022-08-19T10:23:47.969Z,41.29
2022-08-19T10:26:20.889Z,41.54
2022-08-19T10:28:51.737Z,41.83
2022-08-19T10:32:00.636Z,42.12
2022-08-19T10:34:27.435Z,42.48
2022-08-19T10:37:01.130Z,42.49
2022-08-19T10:39:42.467Z,42.48
2022-08-19T10:42:14.976Z,42.53
2022-08-19T10:44:45.845Z,42.64
2022-08-19T10:47:24.466Z,42.50
2022-08-19T10:50:14.071Z,42.36
2022-08-19T10:52:49.790Z,42.35
2022-08-19T10:55:40.525Z,42.56
2022-08-19T10:58:16.101Z,42.86
2022-08-19T11:00:49.547Z,43.07
2022-08-19T11:03:22.762Z,43.22
2022-08-19T11:06:03.196Z,43.40
2022-08-19T11:08:34.648Z,43.80
2022-08-19T11:11:08.286Z,43.90
2022-08-19T11:13:39.870Z,44.00
2022-08-19T11:16:11.967Z,44.03
2022-08-19T11:18:45.045Z,43.84
2022-08-19T11:21:18.111Z,43.45
2022-08-19T11:23:49.498Z,43.16
2022-08-19T11:26:20.836Z,43.02
2022-08-19T11:28:54.436Z,43.18
2022-08-19T11:31:29.035Z,43.39
2022-08-19T11:34:05.885Z,43.53
2022-08-19T11:36:37.104Z,43.60
2022-08-19T11:39:08.365Z,43.71
2022-08-19T11:41:39.156Z,43.91
2022-08-19T11:44:09.911Z,44.03
2022-08-19T11:46:40.764Z,43.82
2022-08-19T11:49:13.988Z,43.97
2022-08-19T11:51:45.496Z,44.17
2022-08-19T11:54:17.054Z,44.15
2022-08-19T11:56:50.490Z,43.92
2022-08-19T11:59:21.265Z,43.66
2022-08-19T12:01:52.092Z,43.70
2022-08-19T12:04:25.611Z,43.87
2022-08-19T12:06:56.484Z,44.18
2022-08-19T12:09:27.206Z,44.48
2022-08-19T12:12:02.938Z,44.32
2022-08-19T12:14:33.691Z,44.06
2022-08-19T12:17:06.075Z,44.12
2022-08-19T12:19:38.046Z,44.49
2022-08-19T12:22:09.965Z,44.55
2022-08-19T12:24:40.673Z,44.53
2022-08-19T12:27:12.662Z,44.52
2022-08-19T12:29:43.869Z,44.69
2022-08-19T12:32:14.601Z,44.85
2022-08-19T12:34:45.706Z,44.94
2022-08-19T12:37:17.915Z,44.49
2022-08-19T12:39:51.797Z,44.08
2022-08-19T12:42:23.147Z,44.04
2022-08-19T12:44:55.956Z,44.07
2022-08-19T12:47:27.595Z,44.35
2022-08-19T12:49:58.435Z,44.24
2022-08-19T12:52:29.548Z,44.26
2022-08-19T12:55:00.203Z,44.34
2022-08-19T12:57:34.258Z,44.17
2022-08-19T13:00:08.700Z,43.89
2022-08-19T13:02:39.469Z,43.59
2022-08-19T13:05:11.741Z,43.26
2022-08-19T13:07:42.599Z,43.24
2022-08-19T13:10:14.099Z,43.27
2022-08-19T13:12:44.863Z,43.36
2022-08-19T13:15:17.601Z,43.46
2022-08-19T13:17:50.022Z,43.37
2022-08-19T13:20:21.262Z,43.35
2022-08-19T13:22:52.637Z,43.53
2022-08-19T13:25:23.988Z,43.70
2022-08-19T13:27:56.224Z,43.71
2022-08-19T13:30:44.693Z,43.52
2022-08-19T13:33:16.678Z,43.29
2022-08-19T13:35:50.232Z,42.84
2022-08-19T13:38:22.270Z,42.42
2022-08-19T13:40:54.918Z,42.30
2022-08-19T13:43:33.511Z,42.18
2022-08-19T13:46:12.841Z,42.19
2022-08-19T13:48:44.045Z,42.21
2022-08-19T13:51:17.308Z,42.22
2022-08-19T13:53:53.885Z,42.26
2022-08-19T13:56:27.839Z,42.19
2022-08-19T13:59:05.991Z,41.94
2022-08-19T14:01:41.996Z,41.93
2022-08-19T14:04:12.815Z,42.18
2022-08-19T14:06:44.256Z,42.12
2022-08-19T14:09:15.084Z,42.01
2022-08-19T14:11:47.797Z,41.96
2022-08-19T14:14:18.593Z,41.79
2022-08-19T14:16:53.046Z,41.62
2022-08-19T14:19:26.016Z,41.59
2022-08-19T14:22:01.056Z,41.53
2022-08-19T14:24:31.771Z,41.38
2022-08-19T14:27:04.412Z,41.23
2022-08-19T14:29:35.903Z,41.15
2022-08-19T14:32:07.121Z,41.15
2022-08-19T14:34:42.376Z,41.13
2022-08-19T14:37:13.091Z,41.17
2022-08-19T14:39:45.786Z,41.32
2022-08-19T14:42:16.748Z,41.50
2022-08-19T14:44:47.523Z,41.52
2022-08-19T14:47:18.411Z,41.60
2022-08-19T14:49:51.193Z,41.59
2022-08-19T14:52:30.536Z,41.71
2022-08-19T14:55:01.472Z,41.61
2022-08-19T14:57:35.496Z,41.48
2022-08-19T15:00:13.116Z,41.34
2022-08-19T15:02:45.256Z,41.33
2022-08-19T15:05:16.022Z,41.22
2022-08-19T15:07:46.869Z,40.97
2022-08-19T15:10:20.861Z,40.63
2022-08-19T15:12:51.959Z,40.30
2022-08-19T15:15:26.300Z,40.00
2022-08-19T15:18:03.241Z,39.69
2022-08-19T15:20:42.071Z,39.45
2022-08-19T15:23:13.231Z,39.27
2022-08-19T15:25:47.624Z,39.04
2022-08-19T15:28:23.787Z,38.76
2022-08-19T15:30:54.716Z,38.49
2022-08-19T15:33:27.441Z,38.14
2022-08-19T15:36:00.316Z,37.89
2022-08-19T15:38:31.067Z,37.75
2022-08-19T15:41:21.833Z,37.62
2022-08-19T15:43:56.160Z,37.39
2022-08-19T15:46:28.456Z,37.23
2022-08-19T15:49:02.265Z,37.14
2022-08-19T15:51:35.663Z,37.07
2022-08-19T15:54:07.419Z,37.00
2022-08-19T15:56:57.480Z,36.90
2022-08-19T15:59:47.095Z,36.82
2022-08-19T16:02:38.301Z,36.77
2022-08-19T16:05:28.499Z,36.69
2022-08-19T16:07:59.371Z,36.68
2022-08-19T16:10:30.226Z,36.67
2022-08-19T16:13:00.876Z,36.65
2022-08-19T16:15:31.990Z,36.61
2022-08-19T16:18:03.861Z,36.48
2022-08-19T16:20:35.617Z,36.34
2022-08-19T16:23:08.765Z,36.28
2022-08-19T16:25:39.917Z,36.19
2022-08-19T16:28:10.978Z,36.09
2022-08-19T16:30:43.073Z,36.05
2022-08-19T16:33:23.169Z,35.94
2022-08-19T16:36:00.053Z,35.86
2022-08-19T16:38:31.458Z,35.76
2022-08-19T16:41:02.466Z,35.67
2022-08-19T16:43:33.392Z,35.55
2022-08-19T16:46:04.058Z,35.42
2022-08-19T16:48:34.769Z,35.32
2022-08-19T16:51:09.502Z,35.20
2022-08-19T16:53:41.351Z,35.12
2022-08-19T16:56:12.920Z,35.08
2022-08-19T16:58:44.513Z,35.05
2022-08-19T17:01:15.557Z,34.96
2022-08-19T17:03:47.703Z,34.83
2022-08-19T17:06:20.817Z,34.70
2022-08-19T17:08:53.066Z,34.56
2022-08-19T17:11:24.544Z,34.48
2022-08-19T17:13:55.733Z,34.40
2022-08-19T17:16:27.357Z,34.31
2022-08-19T17:18:59.176Z,34.24
2022-08-19T17:21:32.187Z,34.19
2022-08-19T17:24:03.633Z,34.15
2022-08-19T17:26:36.298Z,34.11
2022-08-19T17:29:09.565Z,34.03
2022-08-19T17:31:40.306Z,33.94
2022-08-19T17:34:11.032Z,33.86
2022-08-19T17:36:42.120Z,33.77
2022-08-19T17:39:12.845Z,33.66
2022-08-19T17:41:44.260Z,33.59
2022-08-19T17:44:15.116Z,33.52
2022-08-19T17:46:46.823Z,33.43
2022-08-19T17:49:20.027Z,33.37
2022-08-19T17:51:52.566Z,33.31
2022-08-19T17:54:23.397Z,33.24
2022-08-19T17:57:03.401Z,33.20
2022-08-19T17:59:34.184Z,33.17
2022-08-19T18:02:06.457Z,33.15
2022-08-19T18:04:37.236Z,33.08
2022-08-19T18:07:10.285Z,33.02
2022-08-19T18:09:49.566Z,32.95
2022-08-19T18:12:24.645Z,32.88
2022-08-19T18:14:55.470Z,32.83
2022-08-19T18:17:28.857Z,32.77
2022-08-19T18:19:59.751Z,32.71
2022-08-19T18:22:31.501Z,32.66
2022-08-19T18:25:03.082Z,32.62
2022-08-19T18:27:33.925Z,32.59
2022-08-19T18:30:05.232Z,32.57
2022-08-19T18:32:38.270Z,32.57
2022-08-19T18:35:11.622Z,32.56
2022-08-19T18:37:45.367Z,32.53
2022-08-19T18:40:35.178Z,32.50
2022-08-19T18:43:20.101Z,32.44
2022-08-19T18:46:08.242Z,32.38
2022-08-19T18:48:56.731Z,32.35
2022-08-19T18:51:30.003Z,32.31
2022-08-19T18:54:01.547Z,32.29
2022-08-19T18:56:33.528Z,32.25
2022-08-19T18:59:04.640Z,32.21
2022-08-19T19:01:36.898Z,32.18
2022-08-19T19:04:10.700Z,32.13
2022-08-19T19:06:45.392Z,32.10
2022-08-19T19:09:17.463Z,32.07
2022-08-19T19:11:50.213Z,32.06
2022-08-19T19:14:47.589Z,32.05
2022-08-19T19:17:15.537Z,32.02
2022-08-19T19:19:46.422Z,31.98
2022-08-19T19:22:19.004Z,31.92
2022-08-19T19:24:50.862Z,31.87
2022-08-19T19:27:22.071Z,31.83
2022-08-19T19:29:53.443Z,31.78
2022-08-19T19:32:27.077Z,31.74
2022-08-19T19:34:57.955Z,31.70
2022-08-19T19:37:28.718Z,31.64
2022-08-19T19:39:59.590Z,31.58
2022-08-19T19:42:30.394Z,31.56
2022-08-19T19:45:01.625Z,31.52
2022-08-19T19:47:33.605Z,31.49
2022-08-19T19:50:14.212Z,31.46
2022-08-19T19:52:47.060Z,31.44
2022-08-19T19:55:19.116Z,31.41
2022-08-19T19:57:49.982Z,31.39
2022-08-19T20:00:20.979Z,31.39
2022-08-19T20:02:52.853Z,31.39
2022-08-19T20:05:24.025Z,31.38
2022-08-19T20:08:12.875Z,31.35
2022-08-19T20:10:44.280Z,31.29
2022-08-19T20:13:15.752Z,31.28
2022-08-19T20:15:46.766Z,31.25
2022-08-19T20:18:17.453Z,31.21
2022-08-19T20:20:50.307Z,31.17
2022-08-19T20:23:21.724Z,31.14
2022-08-19T20:25:52.590Z,31.15
2022-08-19T20:28:25.072Z,31.15
2022-08-19T20:30:56.715Z,31.15
2022-08-19T20:33:33.772Z,31.17
2022-08-19T20:36:05.473Z,31.20
2022-08-19T20:38:39.399Z,31.21
2022-08-19T20:41:12.888Z,31.21
2022-08-19T20:43:43.926Z,31.21
2022-08-19T20:46:15.199Z,31.20
2022-08-19T20:48:47.488Z,31.20
2022-08-19T20:51:18.572Z,31.18
2022-08-19T20:53:49.246Z,31.12
2022-08-19T20:56:23.087Z,31.03
2022-08-19T20:58:59.305Z,31.00
2022-08-19T21:01:33.390Z,30.98
2022-08-19T21:04:04.435Z,30.97
2022-08-19T21:06:35.215Z,30.97
2022-08-19T21:09:07.355Z,30.93
2022-08-19T21:11:38.141Z,30.88
2022-08-19T21:14:08.963Z,30.86
2022-08-19T21:16:42.143Z,30.86
2022-08-19T21:19:13.090Z,30.85
2022-08-19T21:21:44.840Z,30.83
2022-08-19T21:24:15.639Z,30.82
2022-08-19T21:26:51.103Z,30.78
2022-08-19T21:29:22.232Z,30.75
2022-08-19T21:31:58.167Z,30.74
2022-08-19T21:34:28.927Z,30.73
2022-08-19T21:36:59.791Z,30.71
2022-08-19T21:39:31.117Z,30.68
2022-08-19T21:42:04.281Z,30.66
2022-08-19T21:44:35.120Z,30.63
2022-08-19T21:47:20.395Z,30.62
2022-08-19T21:49:51.079Z,30.62
2022-08-19T21:52:26.090Z,30.60
2022-08-19T21:54:57.376Z,30.57
2022-08-19T21:57:31.124Z,30.54
2022-08-19T22:00:01.831Z,30.52
2022-08-19T22:02:32.619Z,30.50
2022-08-19T22:05:05.103Z,30.48
2022-08-19T22:07:38.683Z,30.46
2022-08-19T22:10:12.237Z,30.43
2022-08-19T22:12:48.793Z,30.40
2022-08-19T22:15:22.545Z,30.35
2022-08-19T22:17:57.613Z,30.30
2022-08-19T22:20:29.639Z,30.25
2022-08-19T22:23:04.379Z,30.22
2022-08-19T22:25:35.936Z,30.18
2022-08-19T22:28:10.899Z,30.14
2022-08-19T22:30:45.400Z,30.09
2022-08-19T22:33:20.143Z,30.02
2022-08-19T22:35:51.015Z,29.97
2022-08-19T22:38:24.205Z,29.93
2022-08-19T22:40:56.642Z,29.91
2022-08-19T22:43:30.258Z,29.88
2022-08-19T22:46:01.195Z,29.84
2022-08-19T22:48:32.748Z,29.80
2022-08-19T22:51:22.301Z,29.78
2022-08-19T22:53:55.226Z,29.75
2022-08-19T22:56:27.409Z,29.72
2022-08-19T22:59:01.086Z,29.64
2022-08-19T23:01:41.517Z,29.60
2022-08-19T23:04:14.838Z,29.58
2022-08-19T23:06:46.763Z,29.54
2022-08-19T23:09:18.520Z,29.47
2022-08-19T23:11:55.320Z,29.37
2022-08-19T23:14:26.084Z,29.26
2022-08-19T23:16:59.696Z,29.13
2022-08-19T23:19:32.667Z,29.00
2022-08-19T23:22:05.303Z,28.95
2022-08-19T23:24:36.294Z,28.92
2022-08-19T23:27:25.260Z,28.93
2022-08-19T23:30:13.705Z,28.93
2022-08-19T23:32:46.083Z,28.88
2022-08-19T23:35:16.994Z,28.81
2022-08-19T23:37:48.162Z,28.75
2022-08-19T23:40:22.045Z,28.74
2022-08-19T23:42:52.901Z,28.77
2022-08-19T23:45:24.764Z,28.79
2022-08-19T23:47:58.915Z,28.80
2022-08-19T23:50:29.791Z,28.81
2022-08-19T23:53:02.121Z,28.81
2022-08-19T23:55:42.891Z,28.80
2022-08-19T23:58:15.099Z,28.79
